Time;durP1;ratioP1;P1;durP2;ratioP2;P2;SDS_P1;SDS_P2;PMS_P1;PMS_P2;Temp;Humidity;BMP_temperature;BMP_pressure;BME280_temperature;BME280_humidity;BME280_pressure;Samples;Min_cycle;Max_cycle;Signal;HPM_P1;HPM_P2
2022/06/21 00:01:24;;;;;;;14.70;5.55;;;;;;;;;;4914656;29;20060;-69
2022/06/21 00:03:55;;;;;;;11.88;4.32;;;;;;;;;;4914551;29;20064;-70
2022/06/21 00:06:27;;;;;;;9.85;4.05;;;;;;;;;;4928062;29;20078;-70
2022/06/21 00:08:57;;;;;;;8.85;4.03;;;;;;;;;;4917514;29;20052;-70
2022/06/21 00:11:34;;;;;;;7.25;3.55;;;;;;;;;;4933691;29;20492;-69
2022/06/21 00:14:04;;;;;;;10.30;3.83;;;;;;;;;;4933475;29;20051;-70
2022/06/21 00:16:35;;;;;;;9.98;4.10;;;;;;;;;;5007509;28;20058;-71
2022/06/21 00:19:10;;;;;;;11.43;4.78;;;;;;;;;;5014469;28;20068;-70
2022/06/21 00:21:41;;;;;;;9.20;4.43;;;;;;;;;;5014388;28;20069;-70
2022/06/21 00:24:18;;;;;;;8.88;4.30;;;;;;;;;;4997475;28;20060;-70
2022/06/21 00:26:48;;;;;;;8.52;3.95;;;;;;;;;;4997733;28;20045;-70
2022/06/21 00:29:19;;;;;;;13.85;4.32;;;;;;;;;;5038452;28;20049;-70
2022/06/21 00:31:49;;;;;;;9.07;4.35;;;;;;;;;;5070060;28;20127;-70
2022/06/21 00:34:22;;;;;;;11.50;4.25;;;;;;;;;;5070168;28;20160;-70
2022/06/21 00:36:52;;;;;;;10.63;4.50;;;;;;;;;;5070456;28;20041;-70
2022/06/21 00:39:22;;;;;;;11.50;4.07;;;;;;;;;;5020193;28;20063;-70
2022/06/21 00:41:57;;;;;;;9.85;3.92;;;;;;;;;;5037810;28;20099;-69
2022/06/21 00:44:40;;;;;;;9.55;3.40;;;;;;;;;;5049659;28;20060;-70
2022/06/21 00:47:35;;;;;;;9.18;3.38;;;;;;;;;;5016858;28;20049;-68
2022/06/21 00:50:32;;;;;;;10.43;4.18;;;;;;;;;;5016518;28;21094;-73
2022/06/21 00:53:20;;;;;;;11.32;4.68;;;;;;;;;;4990402;28;20062;-72
2022/06/21 00:56:15;;;;;;;12.75;4.20;;;;;;;;;;4990206;28;20045;-74
2022/06/21 00:58:45;;;;;;;10.88;4.53;;;;;;;;;;4958198;28;20410;-73
2022/06/21 01:01:27;;;;;;;13.23;4.28;;;;;;;;;;4990486;28;20062;-73
2022/06/21 01:04:03;;;;;;;9.73;4.13;;;;;;;;;;4958193;28;20061;-71
2022/06/21 01:06:36;;;;;;;9.10;3.60;;;;;;;;;;4967770;28;20063;-72
2022/06/21 01:09:12;;;;;;;10.75;3.70;;;;;;;;;;4971215;28;20086;-71
2022/06/21 01:11:48;;;;;;;6.85;2.92;;;;;;;;;;4938435;28;20454;-73
2022/06/21 01:14:22;;;;;;;6.63;3.10;;;;;;;;;;4970775;28;20047;-73
2022/06/21 01:16:53;;;;;;;9.07;3.17;;;;;;;;;;4970844;28;20426;-72
2022/06/21 01:19:43;;;;;;;11.60;4.13;;;;;;;;;;4938783;28;20554;-72
2022/06/21 01:22:51;;;;;;;11.05;4.13;;;;;;;;;;4981492;28;20905;-72
2022/06/21 01:25:41;;;;;;;11.63;5.13;;;;;;;;;;4990151;28;20379;-72
2022/06/21 01:28:12;;;;;;;10.35;3.95;;;;;;;;;;4970588;28;20058;-73
2022/06/21 01:30:46;;;;;;;8.73;3.50;;;;;;;;;;4999141;28;20050;-73
2022/06/21 01:33:19;;;;;;;7.88;2.83;;;;;;;;;;5009563;28;20061;-71
2022/06/21 01:35:54;;;;;;;8.73;3.50;;;;;;;;;;5009524;28;20061;-72
2022/06/21 01:38:32;;;;;;;7.43;3.15;;;;;;;;;;5009271;28;20049;-72
2022/06/21 01:41:11;;;;;;;8.25;3.78;;;;;;;;;;4969715;28;20047;-72
2022/06/21 01:43:44;;;;;;;8.88;3.08;;;;;;;;;;4970144;28;20054;-72
2022/06/21 01:46:19;;;;;;;10.05;3.65;;;;;;;;;;4970694;28;20055;-72
2022/06/21 01:48:53;;;;;;;8.95;3.58;;;;;;;;;;4982348;28;20058;-73
2022/06/21 01:51:30;;;;;;;10.70;3.30;;;;;;;;;;5009354;28;20038;-71
2022/06/21 01:54:03;;;;;;;7.28;3.58;;;;;;;;;;4976729;28;20054;-71
2022/06/21 01:56:39;;;;;;;8.25;3.78;;;;;;;;;;4973531;28;20073;-71
2022/06/21 01:59:26;;;;;;;8.32;3.97;;;;;;;;;;4989715;28;20116;-72
2022/06/21 02:02:11;;;;;;;8.55;3.70;;;;;;;;;;5005572;28;20054;-72
2022/06/21 02:04:59;;;;;;;7.57;3.25;;;;;;;;;;4989282;28;20057;-72
2022/06/21 02:07:35;;;;;;;10.13;4.15;;;;;;;;;;4989528;28;20055;-72
2022/06/21 02:10:15;;;;;;;10.82;3.70;;;;;;;;;;4989630;28;20769;-72
2022/06/21 02:12:48;;;;;;;;;;;;;;;;;;4989810;28;20057;-72
2022/06/21 02:15:34;;;;;;;10.18;4.00;;;;;;;;;;4957120;28;19961;-71
2022/06/21 02:18:09;;;;;;;9.30;4.25;;;;;;;;;;4994287;28;20414;-73
2022/06/21 02:20:46;;;;;;;8.27;3.28;;;;;;;;;;5018040;28;20057;-72
2022/06/21 02:23:20;;;;;;;10.38;4.50;;;;;;;;;;5048654;28;20581;-71
2022/06/21 02:25:53;;;;;;;9.40;3.72;;;;;;;;;;5008938;28;20057;-71
2022/06/21 02:28:28;;;;;;;10.50;4.68;;;;;;;;;;5008883;28;20069;-72
2022/06/21 02:30:59;;;;;;;7.28;3.58;;;;;;;;;;5009097;28;20061;-71
2022/06/21 02:33:34;;;;;;;8.13;3.55;;;;;;;;;;5013388;28;20170;-70
2022/06/21 02:36:14;;;;;;;8.98;3.38;;;;;;;;;;5028724;28;20056;-71
2022/06/21 02:38:54;;;;;;;9.40;3.63;;;;;;;;;;5028592;28;20079;-71
2022/06/21 02:41:32;;;;;;;10.45;4.55;;;;;;;;;;4988998;28;20054;-70
2022/06/21 02:44:10;;;;;;;9.63;4.70;;;;;;;;;;4989143;28;20061;-70
2022/06/21 02:46:46;;;;;;;13.23;5.53;;;;;;;;;;4925827;28;20529;-70
2022/06/21 02:49:22;;;;;;;11.85;4.82;;;;;;;;;;4990270;28;20050;-71
2022/06/21 02:51:59;;;;;;;11.38;5.10;;;;;;;;;;4991385;28;20490;-71
2022/06/21 02:54:52;;;;;;;12.75;4.97;;;;;;;;;;4992984;28;20411;-71
2022/06/21 02:57:23;;;;;;;10.90;5.32;;;;;;;;;;4992552;28;20063;-71
2022/06/21 02:59:56;;;;;;;12.13;5.00;;;;;;;;;;4944373;28;20054;-71
2022/06/21 03:02:30;;;;;;;9.32;4.05;;;;;;;;;;4992640;28;21091;-73
2022/06/21 03:05:04;;;;;;;9.13;3.92;;;;;;;;;;4995630;28;20046;-71
2022/06/21 03:07:43;;;;;;;13.02;4.40;;;;;;;;;;4992190;28;20129;-71
2022/06/21 03:10:25;;;;;;;10.93;4.40;;;;;;;;;;4953407;28;20059;-71
2022/06/21 03:13:17;;;;;;;10.55;3.97;;;;;;;;;;4937978;29;20103;-72
2022/06/21 03:15:56;;;;;;;10.43;4.22;;;;;;;;;;4934225;29;20048;-71
2022/06/21 03:19:02;;;;;;;10.93;4.10;;;;;;;;;;4921806;29;20051;-72
2022/06/21 03:21:35;;;;;;;10.10;4.60;;;;;;;;;;4896211;29;20063;-72
2022/06/21 03:24:15;;;;;;;14.05;4.50;;;;;;;;;;4896373;29;20425;-71
2022/06/21 03:27:11;;;;;;;12.55;5.10;;;;;;;;;;4896376;29;20060;-72
2022/06/21 03:29:42;;;;;;;8.75;4.32;;;;;;;;;;4907325;29;20076;-72
2022/06/21 03:32:13;;;;;;;13.52;4.03;;;;;;;;;;4915078;29;20048;-72
2022/06/21 03:34:44;;;;;;;9.18;4.18;;;;;;;;;;4915146;29;20158;-71
2022/06/21 03:37:14;;;;;;;9.60;4.50;;;;;;;;;;4900066;29;20052;-71
2022/06/21 03:42:39;;;;;;;9.93;4.55;;;;;;;;;;4915215;29;20052;-71
2022/06/21 03:45:30;;;;;;;11.02;4.43;;;;;;;;;;4894796;29;20405;-72
2022/06/21 03:48:29;;;;;;;9.63;4.72;;;;;;;;;;4933776;29;20129;-71
2022/06/21 03:51:11;;;;;;;10.98;5.07;;;;;;;;;;4933457;29;20056;-71
2022/06/21 03:53:45;;;;;;;10.18;4.50;;;;;;;;;;4961113;28;20051;-71
2022/06/21 03:56:24;;;;;;;10.77;4.45;;;;;;;;;;4968523;28;20055;-71
2022/06/21 03:59:31;;;;;;;8.95;4.15;;;;;;;;;;4994764;28;20050;-71
2022/06/21 04:02:26;;;;;;;10.10;4.10;;;;;;;;;;5030086;28;20516;-71
2022/06/21 04:05:21;;;;;;;9.60;4.35;;;;;;;;;;5030702;28;20068;-71
2022/06/21 04:08:13;;;;;;;10.10;4.18;;;;;;;;;;5030528;28;20054;-71
2022/06/21 04:10:52;;;;;;;;;;;;;;;;;;5031395;28;20656;-70
2022/06/21 04:13:34;;;;;;;8.68;4.05;;;;;;;;;;5030682;28;19928;-71
2022/06/21 04:16:27;;;;;;;12.85;5.35;;;;;;;;;;5030676;28;20082;-71
2022/06/21 04:19:11;;;;;;;11.00;4.38;;;;;;;;;;5030497;28;20054;-72
2022/06/21 04:22:15;;;;;;;8.25;4.22;;;;;;;;;;5030668;28;20069;-71
2022/06/21 04:24:54;;;;;;;8.80;3.70;;;;;;;;;;5050187;28;20528;-71
2022/06/21 04:27:33;;;;;;;10.57;4.05;;;;;;;;;;5050289;28;20107;-71
2022/06/21 04:30:12;;;;;;;9.90;4.10;;;;;;;;;;5050271;28;20056;-71
2022/06/21 04:32:50;;;;;;;10.02;3.92;;;;;;;;;;5050370;28;20057;-70
2022/06/21 04:35:49;;;;;;;11.52;4.35;;;;;;;;;;5017114;28;20045;-70
2022/06/21 04:38:29;;;;;;;12.38;3.95;;;;;;;;;;5014855;28;20054;-71
2022/06/21 04:41:12;;;;;;;9.82;3.92;;;;;;;;;;4997415;28;20049;-71
2022/06/21 04:43:57;;;;;;;8.13;4.15;;;;;;;;;;5029991;28;20062;-70
2022/06/21 04:46:38;;;;;;;8.80;3.88;;;;;;;;;;5030185;28;20053;-71
2022/06/21 04:49:23;;;;;;;9.85;4.28;;;;;;;;;;5030278;28;20066;-71
2022/06/21 04:52:07;;;;;;;10.13;3.78;;;;;;;;;;5029959;28;20141;-70
2022/06/21 04:54:40;;;;;;;7.35;3.42;;;;;;;;;;5029981;28;20464;-70
2022/06/21 04:57:22;;;;;;;7.38;3.55;;;;;;;;;;4978088;28;20053;-70
2022/06/21 04:59:58;;;;;;;9.73;3.58;;;;;;;;;;4994572;28;20046;-70
2022/06/21 05:02:31;;;;;;;12.35;4.07;;;;;;;;;;4962651;28;20084;-71
2022/06/21 05:05:20;;;;;;;8.98;3.92;;;;;;;;;;4977109;28;20057;-71
2022/06/21 05:07:55;;;;;;;8.35;3.97;;;;;;;;;;5010147;28;20049;-70
2022/06/21 05:10:38;;;;;;;8.88;3.90;;;;;;;;;;4978018;28;20054;-70
2022/06/21 05:13:29;;;;;;;8.82;3.83;;;;;;;;;;4977062;28;20061;-70
2022/06/21 05:16:06;;;;;;;7.50;3.33;;;;;;;;;;5036944;28;20067;-70
2022/06/21 05:18:46;;;;;;;7.45;3.72;;;;;;;;;;5049387;28;20076;-70
2022/06/21 05:21:27;;;;;;;9.93;4.43;;;;;;;;;;4996429;28;20120;-70
2022/06/21 05:23:58;;;;;;;12.38;3.65;;;;;;;;;;5012893;28;20445;-70
2022/06/21 05:26:32;;;;;;;8.88;3.83;;;;;;;;;;5029289;28;20057;-71
2022/06/21 05:29:31;;;;;;;9.40;3.58;;;;;;;;;;5029286;28;20053;-70
2022/06/21 05:32:06;;;;;;;11.43;3.83;;;;;;;;;;4989526;28;20050;-70
2022/06/21 05:34:43;;;;;;;9.10;3.42;;;;;;;;;;4990194;28;20045;-70
2022/06/21 05:37:30;;;;;;;7.70;3.17;;;;;;;;;;4990096;28;20054;-70
2022/06/21 05:40:08;;;;;;;12.27;2.97;;;;;;;;;;4989841;28;20160;-70
2022/06/21 05:42:39;;;;;;;9.23;3.83;;;;;;;;;;4950694;29;20419;-69
2022/06/21 05:45:17;;;;;;;9.18;3.88;;;;;;;;;;4950829;29;20043;-70
2022/06/21 05:47:57;;;;;;;11.07;3.55;;;;;;;;;;4935597;29;20062;-70
2022/06/21 05:50:34;;;;;;;8.90;4.15;;;;;;;;;;4935156;29;20055;-70
2022/06/21 05:53:23;;;;;;;8.77;3.85;;;;;;;;;;4916123;29;20063;-70
2022/06/21 05:55:54;;;;;;;10.63;3.97;;;;;;;;;;4931806;29;20063;-70
2022/06/21 05:58:32;;;;;;;7.45;3.78;;;;;;;;;;4897569;29;20060;-70
2022/06/21 06:01:14;;;;;;;7.72;3.55;;;;;;;;;;4880821;29;20104;-70
2022/06/21 06:04:13;;;;;;;7.35;3.70;;;;;;;;;;4881419;29;20052;-72
2022/06/21 06:06:46;;;;;;;10.52;4.28;;;;;;;;;;4897282;29;20060;-70
2022/06/21 06:09:25;;;;;;;11.90;4.63;;;;;;;;;;4905722;29;20560;-70
2022/06/21 06:12:11;;;;;;;8.13;3.53;;;;;;;;;;4883034;29;20056;-70
2022/06/21 06:14:53;;;;;;;8.07;3.75;;;;;;;;;;4912496;29;20060;-70
2022/06/21 06:17:42;;;;;;;10.68;3.65;;;;;;;;;;4912414;29;20057;-70
2022/06/21 06:20:30;;;;;;;9.77;4.00;;;;;;;;;;4921324;29;20051;-72
2022/06/21 06:23:14;;;;;;;11.60;3.85;;;;;;;;;;4873531;29;20126;-71
2022/06/21 06:26:17;;;;;;;8.63;4.00;;;;;;;;;;4897966;29;20059;-69
2022/06/21 06:28:58;;;;;;;9.65;3.97;;;;;;;;;;4874552;29;20061;-70
2022/06/21 06:31:35;;;;;;;11.98;3.58;;;;;;;;;;4894061;29;20061;-70
2022/06/21 06:34:14;;;;;;;9.05;3.63;;;;;;;;;;4897166;29;20059;-70
2022/06/21 06:37:00;;;;;;;8.52;3.20;;;;;;;;;;4927967;29;20063;-71
2022/06/21 06:39:33;;;;;;;6.72;2.85;;;;;;;;;;4907931;28;20484;-70
2022/06/21 06:42:19;;;;;;;9.90;3.55;;;;;;;;;;4973821;28;20543;-71
2022/06/21 06:45:03;;;;;;;8.63;3.53;;;;;;;;;;4954005;28;20058;-70
2022/06/21 06:47:38;;;;;;;7.85;3.15;;;;;;;;;;4954352;28;20066;-70
2022/06/21 06:50:23;;;;;;;7.38;3.65;;;;;;;;;;4954337;28;20055;-70
2022/06/21 06:53:02;;;;;;;8.18;3.63;;;;;;;;;;4954050;28;20055;-70
2022/06/21 06:55:55;;;;;;;8.43;3.53;;;;;;;;;;4954159;28;20054;-70
2022/06/21 06:58:44;;;;;;;6.55;3.03;;;;;;;;;;4934453;29;20062;-70
2022/06/21 07:01:20;;;;;;;9.50;3.60;;;;;;;;;;4934619;29;20059;-70
2022/06/21 07:03:59;;;;;;;8.05;3.20;;;;;;;;;;4934754;29;20056;-69
2022/06/21 07:06:49;;;;;;;7.93;3.42;;;;;;;;;;4962584;28;20396;-70
2022/06/21 07:09:42;;;;;;;11.18;3.85;;;;;;;;;;4973202;28;20058;-71
2022/06/21 07:12:15;;;;;;;7.57;3.20;;;;;;;;;;4957327;28;20058;-70
2022/06/21 07:14:48;;;;;;;7.10;3.22;;;;;;;;;;4941631;28;20498;-71
2022/06/21 07:17:38;;;;;;;8.38;3.58;;;;;;;;;;4973013;28;20058;-70
2022/06/21 07:20:26;;;;;;;8.20;3.28;;;;;;;;;;4863532;29;20553;-70
2022/06/21 07:22:56;;;;;;;8.20;3.28;;;;;;;;;;4904074;29;20064;-70
2022/06/21 07:25:44;;;;;;;6.18;3.20;;;;;;;;;;4915530;29;20064;-70
2022/06/21 07:28:24;;;;;;;6.72;2.83;;;;;;;;;;4915352;29;20417;-70
2022/06/21 07:30:59;;;;;;;6.95;3.33;;;;;;;;;;4915257;29;20079;-70
2022/06/21 07:33:50;;;;;;;8.57;3.67;;;;;;;;;;4899834;29;20409;-70
2022/06/21 07:36:27;;;;;;;7.70;3.28;;;;;;;;;;4926671;29;20066;-70
2022/06/21 07:39:04;;;;;;;8.48;3.72;;;;;;;;;;4934097;29;20052;-70
2022/06/21 07:41:43;;;;;;;6.68;3.17;;;;;;;;;;4934010;29;20059;-71
2022/06/21 07:44:35;;;;;;;6.68;3.00;;;;;;;;;;4966875;28;20050;-71
2022/06/21 07:47:39;;;;;;;7.10;2.53;;;;;;;;;;4992101;28;20050;-71
2022/06/21 07:50:25;;;;;;;5.80;2.75;;;;;;;;;;4972095;28;20055;-71
2022/06/21 07:53:17;;;;;;;6.30;2.78;;;;;;;;;;4952831;29;20447;-71
2022/06/21 07:55:49;;;;;;;;;;;;;;;;;;4933990;29;20048;-72
2022/06/21 07:58:34;;;;;;;4.10;1.98;;;;;;;;;;4933758;29;19922;-72
2022/06/21 08:07:20;;;;;;;4.00;1.88;;;;;;;;;;4895405;29;20497;-71
2022/06/21 08:09:50;;;;;;;6.63;1.60;;;;;;;;;;4877252;29;20069;-73
2022/06/21 08:12:20;;;;;;;4.18;1.70;;;;;;;;;;4846095;29;20057;-72
2022/06/21 08:14:52;;;;;;;3.38;1.58;;;;;;;;;;4861767;29;20068;-73
2022/06/21 08:17:35;;;;;;;3.05;1.50;;;;;;;;;;4831038;29;20048;-71
2022/06/21 08:20:10;;;;;;;2.42;1.30;;;;;;;;;;4876875;29;20057;-72
2022/06/21 08:23:03;;;;;;;5.43;1.45;;;;;;;;;;4876770;29;20053;-71
2022/06/21 08:25:45;;;;;;;3.05;1.42;;;;;;;;;;4895415;29;20560;-73
2022/06/21 08:58:49;;;;;;;3.15;1.40;;;;;;;;;;5072249;28;20047;-73
2022/06/21 09:01:29;;;;;;;3.58;1.30;;;;;;;;;;5072129;28;20040;-72
2022/06/21 09:04:14;;;;;;;2.97;1.40;;;;;;;;;;5036779;28;20119;-73
2022/06/21 09:06:47;;;;;;;3.25;1.40;;;;;;;;;;5072219;28;20440;-73
2022/06/21 09:09:27;;;;;;;5.05;1.58;;;;;;;;;;5072060;28;20040;-72
2022/06/21 09:12:30;;;;;;;3.25;1.63;;;;;;;;;;5069349;28;20051;-71
2022/06/21 09:15:30;;;;;;;3.45;1.83;;;;;;;;;;5052713;28;21006;-72
2022/06/21 09:18:17;;;;;;;2.70;1.45;;;;;;;;;;5069500;28;20064;-72
2022/06/21 09:21:17;;;;;;;3.15;1.38;;;;;;;;;;5065520;28;20049;-72
2022/06/21 09:24:05;;;;;;;3.95;1.65;;;;;;;;;;5029380;28;20595;-73
2022/06/21 09:26:52;;;;;;;3.17;1.40;;;;;;;;;;5028921;28;20053;-72
2022/06/21 09:29:28;;;;;;;2.47;1.33;;;;;;;;;;5029320;28;20065;-71
2022/06/21 09:32:26;;;;;;;3.95;1.15;;;;;;;;;;5045580;28;20050;-73
2022/06/21 09:35:09;;;;;;;2.65;1.20;;;;;;;;;;5015829;28;20045;-72
2022/06/21 09:37:54;;;;;;;3.28;1.58;;;;;;;;;;5049316;28;20053;-73
2022/06/21 09:40:36;;;;;;;2.30;1.02;;;;;;;;;;5049346;28;20587;-72
2022/06/21 09:43:56;;;;;;;3.30;1.15;;;;;;;;;;5032125;28;20053;-70
2022/06/21 09:46:32;;;;;;;4.03;2.20;;;;;;;;;;4970222;28;20187;-73
2022/06/21 09:49:05;;;;;;;3.45;1.50;;;;;;;;;;4950672;29;20047;-72
2022/06/21 09:51:50;;;;;;;3.70;1.50;;;;;;;;;;4950939;29;20062;-74
2022/06/21 09:54:36;;;;;;;4.20;1.55;;;;;;;;;;4950882;29;20070;-74
2022/06/21 09:57:15;;;;;;;2.55;1.42;;;;;;;;;;4950673;29;20055;-72
2022/06/21 10:00:10;;;;;;;4.15;1.90;;;;;;;;;;4931858;29;20060;-73
2022/06/21 10:03:07;;;;;;;3.05;1.63;;;;;;;;;;4955768;28;20044;-72
2022/06/21 10:05:57;;;;;;;3.83;2.15;;;;;;;;;;4954716;29;20058;-71
2022/06/21 10:08:40;;;;;;;4.10;2.28;;;;;;;;;;4954794;28;20091;-71
2022/06/21 10:11:30;;;;;;;3.47;1.55;;;;;;;;;;4954864;29;20059;-74
2022/06/21 10:14:25;;;;;;;3.33;1.75;;;;;;;;;;4993776;28;20065;-71
2022/06/21 10:17:18;;;;;;;3.97;2.08;;;;;;;;;;4977062;28;20434;-72
2022/06/21 10:19:53;;;;;;;3.97;1.75;;;;;;;;;;4993507;28;20066;-71
2022/06/21 10:22:29;;;;;;;4.75;1.95;;;;;;;;;;4980457;28;20053;-73
2022/06/21 10:25:19;;;;;;;3.63;2.00;;;;;;;;;;4983815;28;20074;-72
2022/06/21 10:28:08;;;;;;;3.75;1.55;;;;;;;;;;5021626;28;20071;-73
2022/06/21 10:31:08;;;;;;;5.20;1.92;;;;;;;;;;5052368;28;20163;-70
2022/06/21 10:34:15;;;;;;;4.60;2.17;;;;;;;;;;5053397;28;20064;-73
2022/06/21 10:37:03;;;;;;;4.65;2.13;;;;;;;;;;5039251;28;20407;-72
2022/06/21 10:40:04;;;;;;;6.40;2.08;;;;;;;;;;5072774;28;20048;-73
2022/06/21 10:42:55;;;;;;;4.35;1.77;;;;;;;;;;5072216;28;20059;-72
2022/06/21 10:45:44;;;;;;;4.43;2.30;;;;;;;;;;5072485;28;20060;-74
2022/06/21 10:48:48;;;;;;;3.60;1.95;;;;;;;;;;5072485;28;20056;-73
2022/06/21 10:51:41;;;;;;;4.82;2.13;;;;;;;;;;5052254;28;20059;-74
2022/06/21 10:54:14;;;;;;;4.82;2.00;;;;;;;;;;5051921;28;20537;-73
2022/06/21 10:57:11;;;;;;;45.42;17.25;;;;;;;;;;5052268;28;20057;-73
2022/06/21 11:03:23;;;;;;;8.88;4.40;;;;;;;;;;4992953;28;20054;-70
2022/06/21 11:06:05;;;;;;;7.25;3.03;;;;;;;;;;4972596;28;20466;-73
2022/06/21 11:08:57;;;;;;;6.38;3.40;;;;;;;;;;4956721;28;20066;-73
2022/06/21 11:11:45;;;;;;;5.82;2.78;;;;;;;;;;4940523;28;20055;-73
2022/06/21 11:14:47;;;;;;;7.75;3.45;;;;;;;;;;4973030;28;20519;-74
2022/06/21 11:17:47;;;;;;;6.00;3.15;;;;;;;;;;4988858;28;20615;-73
2022/06/21 11:20:43;;;;;;;7.35;3.22;;;;;;;;;;4934318;29;20062;-72
2022/06/21 11:23:25;;;;;;;6.47;2.90;;;;;;;;;;4915379;29;20460;-72
2022/06/21 11:26:00;;;;;;;6.05;3.60;;;;;;;;;;4915610;29;20064;-72
2022/06/21 11:29:05;;;;;;;8.15;3.00;;;;;;;;;;4923740;28;20055;-70
2022/06/21 11:32:00;;;;;;;6.55;2.72;;;;;;;;;;4934600;29;20432;-72
2022/06/21 11:34:48;;;;;;;5.63;2.35;;;;;;;;;;4918338;29;20051;-72
2022/06/21 11:37:38;;;;;;;5.22;2.20;;;;;;;;;;4952812;28;20168;-73
2022/06/21 11:40:22;;;;;;;7.38;2.35;;;;;;;;;;4915226;29;20575;-72
2022/06/21 11:42:59;;;;;;;5.28;2.40;;;;;;;;;;4885516;29;20096;-72
2022/06/21 11:45:50;;;;;;;5.68;2.20;;;;;;;;;;4915076;29;20071;-73
2022/06/21 11:48:34;;;;;;;3.22;1.73;;;;;;;;;;4915347;29;20060;-73
2022/06/21 11:51:10;;;;;;;3.95;1.88;;;;;;;;;;4915037;29;20052;-73
2022/06/21 11:53:56;;;;;;;5.18;1.88;;;;;;;;;;4930547;29;20119;-73
2022/06/21 11:56:41;;;;;;;5.38;2.00;;;;;;;;;;4914993;29;20048;-72
2022/06/21 11:59:18;;;;;;;;;;;;;;;;;;4937345;29;20527;-69
2022/06/21 12:02:15;;;;;;;5.57;1.90;;;;;;;;;;4972083;28;19929;-72
2022/06/21 12:05:15;;;;;;;3.78;2.00;;;;;;;;;;4933139;29;20059;-71
2022/06/21 12:08:05;;;;;;;3.92;2.15;;;;;;;;;;4933348;29;20150;-70
2022/06/21 12:10:46;;;;;;;5.47;2.22;;;;;;;;;;4902221;29;20151;-73
2022/06/21 12:13:37;;;;;;;6.30;2.42;;;;;;;;;;4901633;29;20054;-72
2022/06/21 12:16:08;;;;;;;5.20;2.05;;;;;;;;;;4933303;29;20409;-72
2022/06/21 12:18:38;;;;;;;5.35;1.83;;;;;;;;;;4952847;29;20051;-73
2022/06/21 12:21:14;;;;;;;6.88;2.22;;;;;;;;;;4983168;28;20054;-72
2022/06/21 12:23:48;;;;;;;6.22;1.80;;;;;;;;;;4958440;28;20050;-70
2022/06/21 12:26:24;;;;;;;4.63;1.92;;;;;;;;;;4942991;28;20051;-71
2022/06/21 12:28:58;;;;;;;3.88;2.00;;;;;;;;;;4977193;28;20050;-72
2022/06/21 12:31:50;;;;;;;3.63;2.00;;;;;;;;;;4972384;28;20074;-74
2022/06/21 12:34:33;;;;;;;3.60;1.75;;;;;;;;;;4971872;28;20051;-73
2022/06/21 12:37:10;;;;;;;4.18;2.10;;;;;;;;;;4971768;28;20065;-73
2022/06/21 12:39:56;;;;;;;3.17;1.70;;;;;;;;;;4982945;28;20058;-69
2022/06/21 12:42:45;;;;;;;5.75;2.13;;;;;;;;;;5033435;28;20063;-73
2022/06/21 12:45:36;;;;;;;3.58;1.77;;;;;;;;;;5050226;28;20508;-74
2022/06/21 12:48:44;;;;;;;3.33;1.85;;;;;;;;;;5034001;28;20067;-75
2022/06/21 12:51:29;;;;;;;4.72;1.85;;;;;;;;;;4990688;28;20426;-72
2022/06/21 12:54:18;;;;;;;2.95;1.60;;;;;;;;;;4990983;28;20054;-70
2022/06/21 12:57:27;;;;;;;6.55;2.03;;;;;;;;;;4990644;28;20058;-69
2022/06/21 13:00:20;;;;;;;5.22;2.15;;;;;;;;;;4990509;28;20418;-71
2022/06/21 13:03:27;;;;;;;7.22;1.70;;;;;;;;;;4974602;28;20050;-73
2022/06/21 13:06:34;;;;;;;5.30;1.80;;;;;;;;;;4990274;28;20051;-73
2022/06/21 13:09:09;;;;;;;5.55;1.90;;;;;;;;;;4958192;28;20059;-75
2022/06/21 13:11:58;;;;;;;3.75;1.88;;;;;;;;;;4990525;28;20057;-75
2022/06/21 13:14:46;;;;;;;3.53;1.90;;;;;;;;;;4991095;28;20058;-70
2022/06/21 13:17:31;;;;;;;6.00;1.70;;;;;;;;;;4994410;28;20054;-71
2022/06/21 13:20:35;;;;;;;4.47;1.60;;;;;;;;;;4990022;28;20057;-75
2022/06/21 13:23:23;;;;;;;4.72;2.33;;;;;;;;;;4990014;28;20050;-73
2022/06/21 13:26:44;;;;;;;3.60;1.80;;;;;;;;;;4990118;28;20050;-73
2022/06/21 13:29:42;;;;;;;3.70;1.77;;;;;;;;;;4986482;28;20074;-71
2022/06/21 13:32:23;;;;;;;3.63;2.05;;;;;;;;;;4974202;28;20055;-76
2022/06/21 13:35:26;;;;;;;4.30;1.65;;;;;;;;;;4989929;28;20058;-71
2022/06/21 13:38:04;;;;;;;6.03;2.13;;;;;;;;;;4931990;29;20074;-74
2022/06/21 13:40:34;;;;;;;;;;;;;;;;;;4932344;29;20063;-74
2022/06/21 13:43:07;;;;;;;2.95;1.75;;;;;;;;;;4893850;29;20315;-76
2022/06/21 13:45:44;;;;;;;4.40;1.70;;;;;;;;;;4875438;29;20414;-75
2022/06/21 13:48:51;;;;;;;3.13;1.80;;;;;;;;;;4874982;29;20052;-74
2022/06/21 13:51:26;;;;;;;3.45;1.90;;;;;;;;;;4823626;29;20527;-74
2022/06/21 13:54:20;;;;;;;4.28;1.83;;;;;;;;;;4808655;29;20069;-75
2022/06/21 13:56:58;;;;;;;5.45;1.90;;;;;;;;;;4838381;29;20062;-74
2022/06/21 13:59:37;;;;;;;5.07;1.58;;;;;;;;;;4786810;29;20055;-71
2022/06/21 14:02:32;;;;;;;3.97;1.77;;;;;;;;;;4801966;29;20059;-73
2022/06/21 14:05:15;;;;;;;5.00;1.88;;;;;;;;;;4802005;29;20059;-75
2022/06/21 14:07:55;;;;;;;5.88;2.40;;;;;;;;;;4803667;29;20063;-74
2022/06/21 14:10:43;;;;;;;4.60;2.63;;;;;;;;;;4823507;29;20098;-72
2022/06/21 14:13:17;;;;;;;3.83;1.90;;;;;;;;;;4822932;29;20070;-74
2022/06/21 14:16:12;;;;;;;6.32;1.95;;;;;;;;;;4816521;29;20061;-75
2022/06/21 14:19:07;;;;;;;3.97;1.98;;;;;;;;;;4860567;29;20057;-76
2022/06/21 14:21:41;;;;;;;2.83;1.83;;;;;;;;;;4923894;29;20064;-75
2022/06/21 14:24:17;;;;;;;5.00;2.17;;;;;;;;;;4948351;29;20060;-75
2022/06/21 14:26:59;;;;;;;8.52;2.25;;;;;;;;;;5028719;28;20166;-73
2022/06/21 14:29:45;;;;;;;5.28;2.10;;;;;;;;;;5028666;28;20069;-69
2022/06/21 14:32:25;;;;;;;5.00;2.22;;;;;;;;;;5029020;28;20057;-74
2022/06/21 14:35:39;;;;;;;3.55;2.22;;;;;;;;;;5028885;28;20076;-73
2022/06/21 14:38:27;;;;;;;3.85;1.98;;;;;;;;;;5032974;28;20057;-74
2022/06/21 14:41:04;;;;;;;3.53;1.90;;;;;;;;;;5051812;28;20064;-75
2022/06/21 14:43:43;;;;;;;3.72;2.05;;;;;;;;;;5019384;28;20061;-75
2022/06/21 14:46:14;;;;;;;4.03;2.00;;;;;;;;;;5019038;28;20067;-76
2022/06/21 14:48:51;;;;;;;3.92;1.77;;;;;;;;;;5074350;28;20500;-75
2022/06/21 14:51:36;;;;;;;4.63;1.67;;;;;;;;;;5074566;28;20036;-70
2022/06/21 14:54:27;;;;;;;4.50;2.00;;;;;;;;;;5074602;28;20040;-74
2022/06/21 14:57:21;;;;;;;3.22;1.90;;;;;;;;;;5074443;28;20055;-75
2022/06/21 15:00:05;;;;;;;4.03;1.75;;;;;;;;;;5040355;28;20056;-75
2022/06/21 15:03:03;;;;;;;3.65;1.70;;;;;;;;;;5074591;28;20044;-72
2022/06/21 15:05:51;;;;;;;2.83;1.70;;;;;;;;;;5038633;28;20053;-72
2022/06/21 15:08:34;;;;;;;2.92;1.73;;;;;;;;;;5072267;28;20056;-77
2022/06/21 15:11:13;;;;;;;3.33;1.60;;;;;;;;;;5071911;28;20040;-71
2022/06/21 15:13:53;;;;;;;2.88;1.67;;;;;;;;;;5019160;28;20064;-76
2022/06/21 15:16:43;;;;;;;4.10;1.90;;;;;;;;;;5051770;28;20542;-75
2022/06/21 15:22:22;;;;;;;5.25;1.42;;;;;;;;;;5035107;28;20064;-75
2022/06/21 15:25:22;;;;;;;2.92;1.55;;;;;;;;;;5011717;28;20400;-76
2022/06/21 15:28:09;;;;;;;4.22;1.73;;;;;;;;;;5011457;28;20057;-76
2022/06/21 15:31:04;;;;;;;3.30;1.73;;;;;;;;;;5011884;28;20772;-76
2022/06/21 15:33:49;;;;;;;5.50;1.52;;;;;;;;;;4991844;28;20055;-73
2022/06/21 15:36:33;;;;;;;5.28;1.95;;;;;;;;;;4991848;28;20058;-73
2022/06/21 15:39:15;;;;;;;4.55;1.70;;;;;;;;;;4998575;28;20061;-77
2022/06/21 15:41:52;;;;;;;3.53;2.00;;;;;;;;;;4963348;28;20050;-75
2022/06/21 15:44:36;;;;;;;4.40;1.67;;;;;;;;;;5011490;28;20509;-74
2022/06/21 15:50:37;;;;;;;3.03;1.23;;;;;;;;;;5011979;28;20058;-75
2022/06/21 15:53:29;;;;;;;2.88;1.52;;;;;;;;;;5011653;28;20049;-72
2022/06/21 15:56:15;;;;;;;3.17;1.83;;;;;;;;;;4994487;28;20042;-66
2022/06/21 15:58:52;;;;;;;4.30;1.48;;;;;;;;;;5009909;28;20058;-74
2022/06/21 16:01:34;;;;;;;2.47;1.50;;;;;;;;;;5012320;28;20061;-74
2022/06/21 16:04:36;;;;;;;2.70;1.50;;;;;;;;;;5012614;28;20058;-74
2022/06/21 16:07:17;;;;;;;4.40;1.90;;;;;;;;;;4972182;28;20046;-72
2022/06/21 16:09:52;;;;;;;3.05;1.60;;;;;;;;;;4940384;28;20674;-73
2022/06/21 16:12:39;;;;;;;5.40;2.63;;;;;;;;;;4971571;28;20090;-73
2022/06/21 16:15:18;;;;;;;4.18;1.63;;;;;;;;;;4939986;28;20407;-71
2022/06/21 16:17:51;;;;;;;4.85;2.85;;;;;;;;;;4971951;28;20415;-72
2022/06/21 16:20:38;;;;;;;2.72;1.48;;;;;;;;;;4971997;28;20073;-75
2022/06/21 16:23:18;;;;;;;4.00;1.60;;;;;;;;;;4933532;29;20052;-74
2022/06/21 16:25:57;;;;;;;2.90;1.40;;;;;;;;;;4933600;29;20071;-74
2022/06/21 16:28:57;;;;;;;3.97;1.45;;;;;;;;;;4933388;29;20451;-73
2022/06/21 16:34:30;;;;;;;2.92;1.52;;;;;;;;;;4939161;28;20055;-70
2022/06/21 16:37:12;;;;;;;3.08;1.60;;;;;;;;;;4952330;28;20055;-72
2022/06/21 16:40:05;;;;;;;3.40;1.58;;;;;;;;;;4920272;29;20055;-67
2022/06/21 16:42:54;;;;;;;4.47;1.83;;;;;;;;;;4951986;29;20059;-69
2022/06/21 16:45:42;;;;;;;2.40;1.63;;;;;;;;;;4952308;29;20551;-73
2022/06/21 16:48:40;;;;;;;3.85;1.90;;;;;;;;;;4920051;29;20051;-71
2022/06/21 16:51:35;;;;;;;3.90;2.28;;;;;;;;;;4876014;29;20091;-74
2022/06/21 16:54:06;;;;;;;2.88;1.52;;;;;;;;;;4857837;29;20068;-72
2022/06/21 16:56:46;;;;;;;4.00;1.70;;;;;;;;;;4878608;29;20056;-72
2022/06/21 16:59:22;;;;;;;7.50;1.70;;;;;;;;;;4894773;29;20063;-72
2022/06/21 17:02:01;;;;;;;4.47;1.80;;;;;;;;;;4894966;29;20064;-72
2022/06/21 17:04:37;;;;;;;5.57;1.77;;;;;;;;;;4894641;29;20072;-72
2022/06/21 17:07:25;;;;;;;3.50;1.55;;;;;;;;;;4894653;29;20060;-71
2022/06/21 17:10:01;;;;;;;3.28;1.80;;;;;;;;;;4859821;29;20198;-72
2022/06/21 17:12:42;;;;;;;3.67;1.58;;;;;;;;;;4875921;29;20065;-71